Data for 12/06/2006

Time Sea-Level Adjusted Pressure Absolute Pressure Temperature Relative Humidity Dew Point   
(mb) (inHg) (mb) (inHg) (C) (F) (%) (C) (F)
00:05 1025 30.27 854 25.22 -3.9 25 77 -7.3 18.9
00:10 1025 30.27 855 25.25 -3.9 25 78 -7.2 19.1
00:15 1025 30.27 854 25.22 -4 24.8 79 -7.1 19.2
00:20 1025 30.27 854 25.22 -3.8 25.1 77 -7.3 18.9
00:25 1025 30.27 854 25.22 -3.3 26.1 74 -7.3 18.9
00:30 1025 30.27 854 25.22 -3.6 25.5 76 -7.3 18.9
00:35 1025 30.27 855 25.25 -4.3 24.2 79 -7.5 18.5
00:40 1025 30.27 854 25.22 -4.7 23.5 80 -7.7 18.1
00:45 1025 30.27 854 25.22 -4.6 23.7 78 -7.8 17.9
00:50 1025 30.27 854 25.22 -4.6 23.7 78 -7.9 17.7
00:55 1025 30.27 854 25.22 -4.5 24 77 -7.8 17.9
01:00 1025 30.27 854 25.22 -3.8 25.2 73 -7.9 17.7
01:05 1025 30.27 854 25.22 -3.8 25.1 75 -7.7 18.2
01:10 1025 30.27 854 25.22 -4.1 24.6 75 -7.9 17.8
01:15 1025 30.27 855 25.25 -3.8 25.2 74 -7.8 17.9
01:20 1025 30.27 854 25.22 -3.7 25.3 74 -7.6 18.3
01:25 1025 30.27 854 25.22 -3.5 25.8 73 -7.7 18.2
01:30 1025 30.27 854 25.22 -3.4 26 71 -7.8 17.9
01:35 1025 30.27 854 25.22 -3 26.6 68 -8.1 17.4
01:40 1025 30.27 854 25.22 -2.9 26.8 69 -7.9 17.8
01:45 1025 30.27 854 25.22 -3.4 26 67 -8.7 16.4
01:50 1025 30.27 854 25.22 -2.8 26.9 62 -9.2 15.4
01:55 1025 30.27 854 25.22 -2.3 27.9 59 -9.1 15.5
02:00 1025 30.27 854 25.22 -2.2 28 61 -8.8 16.2
02:05 1025 30.27 854 25.22 -2.7 27.2 69 -7.6 18.3
02:10 1025 30.27 854 25.22 -3.4 25.9 68 -8.4 16.9
02:15 1025 30.27 854 25.22 -3.9 25 69 -8.7 16.4
02:20 1025 30.27 855 25.25 -4.3 24.3 72 -8.7 16.4
02:25 1025 30.27 854 25.22 -4.8 23.3 74 -8.8 16.2
02:30 1025 30.27 854 25.22 -4.6 23.7 73 -8.8 16.2
02:35 1025 30.27 854 25.22 -4.5 24 71 -8.9 16
02:40 1025 30.27 854 25.22 -4.6 23.7 72 -8.9 15.9
02:45 1025 30.27 854 25.22 -4.8 23.4 72 -9 15.7
02:50 1025 30.27 854 25.22 -5.3 22.5 75 -9.1 15.7
02:55 1025 30.27 854 25.22 -5.5 22.1 75 -9.2 15.4
03:00 1025 30.27 854 25.22 -5.3 22.4 74 -9.3 15.3
03:05 1025 30.27 854 25.22 -5.4 22.4 74 -9.3 15.3
03:10 1025 30.27 855 25.25 -5.2 22.7 73 -9.2 15.4
03:15 1025 30.27 855 25.25 -5.4 22.4 74 -9.3 15.2
03:20 1025 30.27 855 25.25 -5.3 22.5 74 -9.2 15.4
03:25 1025 30.27 855 25.25 -5.3 22.4 74 -9.3 15.2
03:30 1025 30.27 855 25.25 -5.4 22.4 74 -9.3 15.2
03:35 1025 30.27 855 25.25 -5.6 21.9 76 -9.2 15.5
03:40 1025 30.27 855 25.25 -5.4 22.2 74 -9.3 15.3
03:45 1025 30.27 855 25.25 -5 23 75 -8.8 16.1
03:50 1025 30.27 855 25.25 -4.6 23.7 71 -9 15.7
03:55 1025 30.27 855 25.25 -5 23 73 -9 15.7
04:00 1025 30.27 855 25.25 -5.2 22.7 72 -9.4 15.1
04:05 1025 30.27 855 25.25 -5.2 22.6 73 -9.4 15.1
04:10 1025 30.27 855 25.25 -5 22.9 71 -9.5 14.8
04:15 1025 30.27 855 25.25 -5.1 22.9 72 -9.4 15.2
04:20 1025 30.27 855 25.25 -4.8 23.3 72 -9.1 15.7
04:25 1025 30.27 854 25.22 -4.7 23.6 70 -9.3 15.3
04:30 1025 30.27 854 25.22 -4.5 23.9 70 -9.2 15.5
04:35 1025 30.27 854 25.22 -4.5 23.9 71 -9 15.8
04:40 1025 30.27 855 25.25 -4.4 24 66 -9.8 14.3
04:45 1025 30.27 855 25.25 -4.3 24.2 68 -9.4 15
04:50 1025 30.27 855 25.25 -4.6 23.7 69 -9.5 14.9
04:55 1025 30.27 855 25.25 -5.1 22.9 71 -9.6 14.8
05:00 1025 30.27 855 25.25 -5 23 71 -9.5 14.8
05:05 1025 30.27 855 25.25 -4.7 23.6 70 -9.4 15.1
05:10 1026 30.3 855 25.25 -4.4 24 69 -9.3 15.3
05:15 1026 30.3 855 25.25 -4.4 24.1 68 -9.5 14.9
05:20 1026 30.3 855 25.25 -4.5 23.9 68 -9.6 14.7
05:25 1026 30.3 855 25.25 -4.9 23.2 69 -9.7 14.5
05:30 1026 30.3 855 25.25 -5.1 22.8 73 -9.2 15.5
05:35 1026 30.3 855 25.25 -5.1 22.8 74 -9 15.8
05:40 1026 30.3 855 25.25 -5 23 67 -10.2 13.6
05:45 1026 30.3 855 25.25 -5.2 22.7 69 -10 14
05:50 1026 30.3 855 25.25 -5.1 22.9 67 -10.2 13.7
05:55 1026 30.3 855 25.25 -4.9 23.1 67 -10.1 13.9
06:00 1026 30.3 855 25.25 -4.7 23.5 67 -10.1 13.9
06:05 1026 30.3 855 25.25 -4.8 23.4 66 -10.1 13.8
06:10 1026 30.3 855 25.25 -5.2 22.7 68 -10.2 13.7
06:15 1026 30.3 855 25.25 -5.2 22.6 68 -10.3 13.5
06:20 1026 30.3 855 25.25 -5.1 22.8 68 -10.1 13.9
06:25 1026 30.3 855 25.25 -5.2 22.7 69 -10 13.9
06:30 1026 30.3 855 25.25 -5.3 22.5 70 -10 14
06:35 1026 30.3 855 25.25 -5.4 22.4 71 -9.9 14.2
06:40 1026 30.3 855 25.25 -5.4 22.2 72 -9.7 14.6
06:45 1026 30.3 855 25.25 -5.3 22.5 71 -9.7 14.5
06:50 1026 30.3 855 25.25 -5.3 22.5 72 -9.6 14.7
06:55 1026 30.3 855 25.25 -5.1 22.7 71 -9.7 14.6
07:00 1026 30.3 855 25.25 -5.2 22.7 70 -9.9 14.3
07:05 1026 30.3 855 25.25 -5.1 22.8 70 -9.8 14.4
07:10 1026 30.3 855 25.25 -5.2 22.7 71 -9.6 14.7
07:15 1026 30.3 855 25.25 -4.9 23.2 70 -9.6 14.7
07:20 1026 30.3 855 25.25 -4.7 23.5 69 -9.5 14.8
07:25 1026 30.3 855 25.25 -4.4 24 68 -9.4 15.1
07:30 1026 30.3 856 25.28 -4.6 23.8 69 -9.5 14.9
07:35 1026 30.3 856 25.28 -4.9 23.1 70 -9.5 14.8
07:40 1026 30.3 856 25.28 -5.4 22.3 72 -9.7 14.5
07:45 1026 30.3 856 25.28 -5.6 21.8 73 -9.7 14.6
07:50 1027 30.33 856 25.28 -5.5 22.1 73 -9.5 14.9
07:55 1027 30.33 856 25.28 -5.5 22.1 74 -9.4 15
08:00 1026 30.3 856 25.28 -5.3 22.5 73 -9.4 15.1
08:05 1026 30.3 856 25.28 -4.8 23.3 73 -9.1 15.7
08:10 1027 30.33 856 25.28 -4.8 23.4 73 -9 15.8
08:15 1027 30.33 856 25.28 -4.6 23.7 72 -9 15.8
08:20 1027 30.33 856 25.28 -4.7 23.6 72 -9 15.9
08:25 1027 30.33 856 25.28 -4.5 23.9 71 -8.9 15.9
08:30 1027 30.33 856 25.28 -3.9 25 70 -8.5 16.6
08:35 1027 30.33 856 25.28 -3.6 25.5 68 -8.7 16.4
08:40 1027 30.33 856 25.28 -3.3 26.1 69 -8.3 17.1
08:45 1027 30.33 856 25.28 -3 26.6 69 -7.9 17.8
08:50 1027 30.33 856 25.28 -2.9 26.7 69 -7.9 17.9
08:55 1027 30.33 856 25.28 -3.3 26 69 -8.2 17.3
09:00 1027 30.33 856 25.28 -3.5 25.6 70 -8.2 17.3
09:05 1027 30.33 856 25.28 -3.6 25.6 70 -8.2 17.2
09:10 1027 30.33 856 25.28 -3.4 25.9 70 -8.1 17.3
09:15 1027 30.33 856 25.28 -3.2 26.2 69 -8.2 17.2
09:20 1027 30.33 856 25.28 -3.1 26.5 69 -8 17.6
09:25 1027 30.33 856 25.28 -2.9 26.8 68 -8 17.7
09:30 1027 30.33 856 25.28 -2.7 27.1 67 -8.1 17.5
09:35 1027 30.33 856 25.28 -2.7 27.2 65 -8.3 17.1
09:40 1027 30.33 856 25.28 -2.6 27.3 66 -8.2 17.3
09:45 1027 30.33 856 25.28 -2.5 27.5 67 -7.8 18
09:50 1027 30.33 856 25.28 -2.4 27.6 66 -7.9 17.7
09:55 1027 30.33 856 25.28 -2.2 28.1 65 -7.9 17.9
10:00 1027 30.33 856 25.28 -2.1 28.2 64 -8 17.6
10:05 1027 30.33 856 25.28 -2 28.4 64 -7.9 17.8
10:10 1027 30.33 856 25.28 -1.5 29.2 59 -8.5 16.7
10:15 1027 30.33 856 25.28 -1.1 30 60 -7.9 17.8
10:20 1027 30.33 856 25.28 -1 30.2 61 -7.6 18.3
10:25 1027 30.33 856 25.28 -1 30.1 62 -7.5 18.5
10:30 1027 30.33 856 25.28 -0.8 30.5 62 -7.2 19
10:35 1027 30.33 856 25.28 -0.4 31.4 60 -7.1 19.2
10:40 1027 30.33 856 25.28 0.2 32.3 59 -6.8 19.7
10:45 1027 30.33 856 25.28 0.3 32.5 59 -6.9 19.5
10:50 1027 30.33 856 25.28 -0 31.9 60 -6.9 19.5
10:55 1027 30.33 856 25.28 -0.1 31.9 62 -6.5 20.2
11:00 1027 30.33 856 25.28 -0 32 61 -6.7 20
11:05 1027 30.33 856 25.28 0 32.1 61 -6.6 20.2
11:10 1027 30.33 856 25.28 0.3 32.5 60 -6.6 20.1
11:15 1027 30.33 856 25.28 0.4 32.8 61 -6.2 20.8
11:20 1027 30.33 856 25.28 0.6 33.1 62 -5.9 21.3
11:25 1027 30.33 856 25.28 0.8 33.4 62 -5.8 21.6
11:30 1027 30.33 856 25.28 1 33.7 61 -5.8 21.6
11:35 1027 30.33 856 25.28 1.2 34.1 60 -5.7 21.7
11:40 1027 30.33 856 25.28 1.2 34.2 61 -5.6 22
11:45 1027 30.33 856 25.28 1.2 34.1 61 -5.6 21.9
11:50 1027 30.33 856 25.28 1.1 34 62 -5.3 22.5
11:55 1027 30.33 856 25.28 1.1 34 61 -5.5 22.1
12:00 1027 30.33 856 25.28 1.1 33.9 61 -5.6 21.9
12:05 1027 30.33 856 25.28 0.9 33.6 64 -5.2 22.6
12:10 1027 30.33 856 25.28 1 33.8 64 -5.1 22.9
12:15 1027 30.33 856 25.28 0.9 33.6 65 -5 23
12:20 1027 30.33 857 25.31 0.7 33.2 66 -4.9 23.2
12:25 1027 30.33 856 25.28 0.3 32.6 69 -4.7 23.6
12:30 1027 30.33 856 25.28 0.2 32.4 72 -4.3 24.2
12:35 1027 30.33 856 25.28 0.1 32.2 72 -4.3 24.3
12:40 1027 30.33 856 25.28 -0 32 71 -4.6 23.7
12:45 1027 30.33 856 25.28 -0.1 31.8 73 -4.4 24.1
12:50 1027 30.33 856 25.28 -0.2 31.6 75 -4.2 24.5
12:55 1027 30.33 856 25.28 0.1 32.1 71 -4.6 23.7
13:00 1027 30.33 857 25.31 0.3 32.5 71 -4.4 24
13:05 1027 30.33 857 25.31 0.2 32.3 73 -4.1 24.6
13:10 1027 30.33 857 25.31 0.2 32.3 74 -4 24.8
13:15 1027 30.33 857 25.31 0.3 32.6 73 -3.9 25
13:20 1027 30.33 857 25.31 0.4 32.7 73 -3.9 25
13:25 1027 30.33 857 25.31 0.3 32.5 74 -3.8 25.2
13:30 1028 30.36 857 25.31 0.2 32.4 75 -3.7 25.3
13:35 1028 30.36 857 25.31 0.3 32.6 75 -3.6 25.5
13:40 1028 30.36 857 25.31 0.3 32.6 75 -3.6 25.5
13:45 1028 30.36 857 25.31 0.1 32.2 77 -3.4 25.9
13:50 1028 30.36 857 25.31 -0.2 31.7 81 -3.1 26.4
13:55 1028 30.36 857 25.31 -0.5 31.2 82 -3.1 26.4
14:00 1028 30.36 857 25.31 -0.5 31.1 81 -3.3 26.1
14:05 1027 30.33 857 25.31 -0.3 31.4 81 -3.2 26.2
14:10 1027 30.33 857 25.31 -0.1 31.9 80 -3.1 26.4
14:15 1027 30.33 857 25.31 0.2 32.4 80 -2.8 26.9
14:20 1027 30.33 857 25.31 0.4 32.7 79 -2.9 26.8
14:25 1027 30.33 857 25.31 0.6 33.1 77 -2.9 26.7
14:30 1027 30.33 857 25.31 0.9 33.5 76 -2.9 26.9
14:35 1027 30.33 857 25.31 1.1 33.9 75 -2.8 26.9
14:40 1027 30.33 857 25.31 1.3 34.3 75 -2.6 27.3
14:45 1027 30.33 857 25.31 1.6 34.8 74 -2.6 27.3
14:50 1027 30.33 857 25.31 1.6 34.8 74 -2.5 27.4
14:55 1027 30.33 857 25.31 1.7 35 74 -2.4 27.6
15:00 1027 30.33 857 25.31 1.7 35 76 -2.1 28.2
15:05 1028 30.36 857 25.31 1.2 34.1 78 -2.2 28.1
15:10 1028 30.36 857 25.31 1 33.8 78 -2.4 27.8
15:15 1028 30.36 857 25.31 1 33.7 78 -2.5 27.6
15:20 1028 30.36 857 25.31 1.1 33.9 76 -2.6 27.3
15:25 1028 30.36 857 25.31 1.2 34.1 76 -2.7 27.2
15:30 1028 30.36 857 25.31 1.3 34.4 76 -2.5 27.5
15:35 1028 30.36 857 25.31 1.3 34.4 76 -2.5 27.5
15:40 1028 30.36 857 25.31 1.3 34.3 76 -2.4 27.7
15:45 1028 30.36 857 25.31 1.3 34.4 76 -2.5 27.4
15:50 1028 30.36 857 25.31 1.4 34.5 75 -2.5 27.4
15:55 1028 30.36 857 25.31 1.4 34.6 75 -2.6 27.4
16:00 1028 30.36 857 25.31 1.5 34.8 75 -2.5 27.5
16:05 1028 30.36 857 25.31 1.5 34.8 76 -2.3 27.9
16:10 1028 30.36 857 25.31 1.5 34.8 76 -2.2 28
16:15 1028 30.36 857 25.31 1.6 34.9 76 -2.1 28.1
16:20 1028 30.36 857 25.31 1.7 35.1 76 -2.1 28.1
16:25 1028 30.36 857 25.31 2 35.5 76 -1.9 28.6
16:30 1028 30.36 857 25.31 2 35.7 76 -1.7 28.9
16:35 1028 30.36 857 25.31 2 35.6 77 -1.7 29
16:40 1028 30.36 857 25.31 2 35.6 77 -1.6 29.1
16:45 1028 30.36 857 25.31 2 35.6 77 -1.6 29.1
16:50 1028 30.36 857 25.31 2.1 35.7 76 -1.7 28.9
16:55 1028 30.36 857 25.31 2.2 35.9 74 -1.9 28.6
17:00 1028 30.36 857 25.31 2.3 36.2 76 -1.5 29.3
17:05 1028 30.36 857 25.31 2.2 36 76 -1.5 29.3
17:10 1028 30.36 857 25.31 2.2 36 78 -1.3 29.7
17:15 1028 30.36 857 25.31 2 35.6 78 -1.4 29.5
17:20 1028 30.36 857 25.31 2.2 35.9 77 -1.4 29.5
17:25 1028 30.36 857 25.31 2 35.6 79 -1.3 29.7
17:30 1028 30.36 857 25.31 1.9 35.3 79 -1.4 29.5
17:35 1028 30.36 857 25.31 1.6 34.9 80 -1.4 29.5
17:40 1028 30.36 857 25.31 1.4 34.5 82 -1.4 29.5
17:45 1028 30.36 857 25.31 1.7 35 79 -1.6 29.2
17:50 1028 30.36 857 25.31 1.6 34.9 80 -1.4 29.4
17:55 1028 30.36 857 25.31 1.3 34.4 82 -1.4 29.5
18:00 1028 30.36 857 25.31 1.1 34 84 -1.4 29.5
18:05 1028 30.36 857 25.31 0.9 33.7 84 -1.5 29.4
18:10 1028 30.36 857 25.31 1 33.8 84 -1.3 29.6
18:15 1028 30.36 857 25.31 1 33.8 84 -1.4 29.5
18:20 1028 30.36 857 25.31 1.2 34.1 83 -1.4 29.6
18:25 1028 30.36 857 25.31 1.2 34.1 84 -1.3 29.7
18:30 1028 30.36 857 25.31 1.1 33.9 85 -1.2 29.8
18:35 1028 30.36 857 25.31 1.1 34 84 -1.3 29.7
18:40 1028 30.36 857 25.31 1.1 34 84 -1.3 29.6
18:45 1028 30.36 857 25.31 1.2 34.2 83 -1.4 29.5
18:50 1028 30.36 857 25.31 1.2 34.2 82 -1.5 29.3
18:55 1028 30.36 857 25.31 1.2 34.2 83 -1.4 29.5
19:00 1028 30.36 857 25.31 1.2 34.1 83 -1.4 29.5
19:05 1028 30.36 857 25.31 1.2 34.1 83 -1.3 29.6
19:10 1028 30.36 857 25.31 1.3 34.4 82 -1.4 29.5
19:15 1028 30.36 857 25.31 1.5 34.7 82 -1.2 29.8
19:20 1028 30.36 857 25.31 1.4 34.5 83 -1.3 29.7
19:25 1028 30.36 857 25.31 1.5 34.6 82 -1.2 29.8
19:30 1028 30.36 857 25.31 1.3 34.4 82 -1.4 29.5
19:35 1028 30.36 857 25.31 1.3 34.3 83 -1.3 29.6
19:40 1028 30.36 857 25.31 1.2 34.1 83 -1.4 29.5
19:45 1028 30.36 857 25.31 1.2 34.1 84 -1.3 29.7
19:50 1028 30.36 857 25.31 1.1 34 83 -1.4 29.4
19:55 1028 30.36 857 25.31 1.3 34.4 82 -1.3 29.6
20:00 1028 30.36 857 25.31 1.5 34.6 82 -1.3 29.7
20:05 1028 30.36 857 25.31 1.5 34.7 80 -1.5 29.3
20:10 1028 30.36 857 25.31 1.6 34.9 80 -1.5 29.3
20:15 1028 30.36 857 25.31 1.6 34.8 80 -1.6 29.2
20:20 1028 30.36 857 25.31 1.6 34.8 79 -1.6 29.1
20:25 1028 30.36 857 25.31 1.7 35.1 78 -1.7 29
20:30 1028 30.36 857 25.31 1.9 35.4 78 -1.5 29.4
20:35 1028 30.36 857 25.31 2 35.7 79 -1.3 29.7
20:40 1028 30.36 857 25.31 1.9 35.4 81 -1 30.1
20:45 1028 30.36 857 25.31 1.5 34.7 83 -1.1 30
20:50 1028 30.36 857 25.31 1.2 34.2 83 -1.3 29.6
20:55 1028 30.36 857 25.31 1.2 34.2 83 -1.3 29.7
21:00 1028 30.36 857 25.31 1.1 34.1 84 -1.3 29.7
21:05 1028 30.36 857 25.31 1.2 34.1 83 -1.3 29.7
21:10 1028 30.36 857 25.31 1.2 34.1 84 -1.3 29.7
21:15 1028 30.36 857 25.31 0.9 33.7 84 -1.4 29.5
21:20 1028 30.36 857 25.31 0.6 33.1 86 -1.4 29.4
21:25 1028 30.36 857 25.31 0.7 33.2 85 -1.5 29.2
21:30 1028 30.36 857 25.31 0.6 33.1 85 -1.7 29
21:35 1028 30.36 857 25.31 0.4 32.7 86 -1.7 28.9
21:40 1028 30.36 857 25.31 0.3 32.5 87 -1.6 29.1
21:45 1028 30.36 857 25.31 0 32 88 -1.7 28.9
21:50 1028 30.36 857 25.31 -0.1 31.8 89 -1.7 28.9
21:55 1028 30.36 857 25.31 -0.1 31.7 89 -1.7 28.9
22:00 1028 30.36 857 25.31 -0.1 31.8 88 -1.8 28.7
22:05 1028 30.36 857 25.31 -0.1 31.7 89 -1.8 28.7
22:10 1028 30.36 857 25.31 0.1 32.2 89 -1.6 29.2
22:15 1028 30.36 857 25.31 0.4 32.7 87 -1.6 29.2
22:20 1028 30.36 857 25.31 0.6 33.1 85 -1.6 29.2
22:25 1028 30.36 857 25.31 1 33.9 83 -1.5 29.2
22:30 1028 30.36 857 25.31 1.1 34.1 82 -1.6 29.2
22:35 1028 30.36 857 25.31 1 33.9 83 -1.5 29.3
22:40 1028 30.36 857 25.31 0.9 33.7 85 -1.3 29.6
22:45 1028 30.36 857 25.31 0.9 33.7 84 -1.5 29.4
22:50 1028 30.36 857 25.31 0.9 33.6 85 -1.3 29.6
22:55 1028 30.36 857 25.31 0.7 33.2 86 -1.4 29.5
23:00 1028 30.36 857 25.31 0.6 33.1 86 -1.4 29.5
23:05 1028 30.36 857 25.31 0.8 33.4 86 -1.3 29.6
23:10 1028 30.36 857 25.31 0.8 33.4 86 -1.3 29.6
23:15 1028 30.36 857 25.31 0.8 33.5 85 -1.4 29.5
23:20 1028 30.36 857 25.31 0.9 33.6 85 -1.3 29.6
23:25 1028 30.36 857 25.31 1 33.8 84 -1.5 29.4
23:30 1028 30.36 857 25.31 1 33.8 84 -1.5 29.4
23:35 1028 30.36 857 25.31 0.9 33.6 84 -1.5 29.3
23:40 1028 30.36 857 25.31 0.8 33.5 84 -1.5 29.2
23:45 1028 30.36 857 25.31 0.9 33.6 84 -1.5 29.3
23:50 1028 30.36 857 25.31 0.8 33.5 85 -1.4 29.4
23:55 1028 30.36 857 25.31 0.8 33.4 85 -1.4 29.4
24:00 1028 30.36 857 25.31 0.8 33.5 84 -1.5 29.3